PWSweather.com
Personal Weather Stations
Station Observations
NAGEO265NE
Bedzin GrodziecPL 42-506

Bedzin GrodziecPL 42-506

Lat: 50.347, Lon: 19.079

Elevation: 948

Station Type: WH1080

http://www.meteo-grodziec.pl/

High Low Average
Temperature 56.1°F13.4°C 44.4°F6.9°C 49.2°F9.6°C
Dew Point 45.7°F7.6°C 38.7°F3.7°C 42.6°F5.9°C
Winds 7.0 mph 11.3 kmh Calm Calm 2.0 mph SW3.2 kmh SW
Wind Gusts 18.0 mph29.0 kmh -- 7.0 mph11.3 kmh
Humidity 93% 56% 79%
Pressure 29.68 in1005.1 mb 29.45 in997.3 mb -
Precipitation 0.02 in0.5 mm - -
Hour Temp Dew Point Humidity Winds Wind Gusts Pressure Precip Precip Rate Daily Precip Total
12:00 AM 48.0°F8.9°C 45.1°F7.3°C 90% 6.0 mph SW9.7 kmh SW 14.0 mph22.5 kmh 29.45 in997.3 mb 0.02 in0.5 mm 0.00 in0.0 mm 0.02 in0.5 mm
12:05 AM 47.8°F8.8°C 45.1°F7.3°C 90% 7.0 mph SW11.3 kmh SW 12.0 mph19.3 kmh 29.45 in997.3 mb 0.02 in0.5 mm 0.00 in0.0 mm 0.01 in0.3 mm
12:10 AM 47.8°F8.8°C 45.3°F7.4°C 91% 6.0 mph SW9.7 kmh SW 14.0 mph22.5 kmh 29.45 in997.3 mb 0.02 in0.5 mm 0.00 in0.0 mm 0.01 in0.3 mm
12:15 AM 47.8°F8.8°C 45.3°F7.4°C 91% 6.0 mph SW9.7 kmh SW 14.0 mph22.5 kmh 29.45 in997.3 mb 0.02 in0.5 mm 0.00 in0.0 mm 0.01 in0.3 mm
12:20 AM 47.8°F8.8°C 45.3°F7.4°C 91% 6.0 mph SW9.7 kmh SW 12.0 mph19.3 kmh 29.45 in997.3 mb 0.02 in0.5 mm 0.00 in0.0 mm 0.01 in0.3 mm
12:25 AM 47.7°F8.7°C 45.1°F7.3°C 91% 6.0 mph SW9.7 kmh SW 14.0 mph22.5 kmh 29.45 in997.3 mb 0.02 in0.5 mm 0.00 in0.0 mm 0.01 in0.3 mm
12:30 AM 47.7°F8.7°C 45.5°F7.5°C 92% 6.0 mph SW9.7 kmh SW 15.0 mph24.1 kmh 29.45 in997.3 mb 0.02 in0.5 mm 0.00 in0.0 mm 0.02 in0.5 mm
12:35 AM 47.7°F8.7°C 45.3°F7.4°C 92% 5.0 mph SW8.0 kmh SW 15.0 mph24.1 kmh 29.46 in997.6 mb 0.02 in0.5 mm 0.00 in0.0 mm 0.02 in0.5 mm
12:40 AM 47.7°F8.7°C 45.3°F7.4°C 92% 5.0 mph SW8.0 kmh SW 14.0 mph22.5 kmh 29.46 in997.6 mb 0.02 in0.5 mm 0.00 in0.0 mm 0.02 in0.5 mm
12:45 AM 47.5°F8.6°C 45.3°F7.4°C 92% 6.0 mph SW9.7 kmh SW 14.0 mph22.5 kmh 29.46 in997.6 mb 0.02 in0.5 mm 0.00 in0.0 mm 0.02 in0.5 mm
12:50 AM 47.5°F8.6°C 45.5°F7.5°C 93% 5.0 mph SW8.0 kmh SW 10.0 mph16.1 kmh 29.46 in997.6 mb 0.02 in0.5 mm 0.00 in0.0 mm 0.02 in0.5 mm
12:55 AM 47.5°F8.6°C 45.5°F7.5°C 93% 4.0 mph SW6.4 kmh SW 10.0 mph16.1 kmh 29.46 in997.6 mb 0.02 in0.5 mm 0.00 in0.0 mm 0.02 in0.5 mm
01:00 AM 47.5°F8.6°C 45.5°F7.5°C 93% 5.0 mph SW8.0 kmh SW 14.0 mph22.5 kmh 29.46 in997.6 mb 0.02 in0.5 mm 0.00 in0.0 mm 0.02 in0.5 mm
01:05 AM 47.5°F8.6°C 45.5°F7.5°C 93% 5.0 mph SW8.0 kmh SW 14.0 mph22.5 kmh 29.46 in997.6 mb 0.02 in0.5 mm 0.00 in0.0 mm 0.02 in0.5 mm
01:10 AM 47.5°F8.6°C 45.5°F7.5°C 93% 6.0 mph SW9.7 kmh SW 14.0 mph22.5 kmh 29.46 in997.6 mb 0.02 in0.5 mm 0.00 in0.0 mm 0.02 in0.5 mm
01:15 AM 47.5°F8.6°C 45.5°F7.5°C 93% 6.0 mph SW9.7 kmh SW 14.0 mph22.5 kmh 29.46 in997.6 mb 0.02 in0.5 mm 0.00 in0.0 mm 0.02 in0.5 mm
01:20 AM 47.5°F8.6°C 45.5°F7.5°C 93% 5.0 mph SW8.0 kmh SW 11.0 mph17.7 kmh 29.46 in997.6 mb 0.02 in0.5 mm 0.00 in0.0 mm 0.02 in0.5 mm
01:25 AM 47.5°F8.6°C 45.5°F7.5°C 93% 6.0 mph SW9.7 kmh SW 16.0 mph25.7 kmh 29.46 in997.6 mb 0.02 in0.5 mm 0.00 in0.0 mm 0.02 in0.5 mm
01:30 AM 47.7°F8.7°C 45.7°F7.6°C 93% 7.0 mph SW11.3 kmh SW 16.0 mph25.7 kmh 29.46 in997.6 mb 0.01 in0.3 mm 0.00 in0.0 mm 0.02 in0.5 mm
01:35 AM 47.7°F8.7°C 45.3°F7.4°C 92% 6.0 mph SW9.7 kmh SW 14.0 mph22.5 kmh 29.46 in997.6 mb 0.01 in0.3 mm 0.00 in0.0 mm 0.02 in0.5 mm
01:40 AM 47.7°F8.7°C 45.3°F7.4°C 92% 5.0 mph SW8.0 kmh SW 13.0 mph20.9 kmh 29.46 in997.6 mb 0.01 in0.3 mm 0.00 in0.0 mm 0.02 in0.5 mm
01:45 AM 47.7°F8.7°C 45.5°F7.5°C 92% 6.0 mph SW9.7 kmh SW 14.0 mph22.5 kmh 29.46 in997.6 mb 0.01 in0.3 mm 0.00 in0.0 mm 0.02 in0.5 mm
01:50 AM 47.7°F8.7°C 45.5°F7.5°C 92% 7.0 mph SW11.3 kmh SW 15.0 mph24.1 kmh 29.46 in997.6 mb 0.00 in0.0 mm 0.00 in0.0 mm 0.02 in0.5 mm
01:55 AM 47.7°F8.7°C 45.3°F7.4°C 92% 5.0 mph SW8.0 kmh SW 15.0 mph24.1 kmh 29.46 in997.6 mb 0.00 in0.0 mm 0.00 in0.0 mm 0.02 in0.5 mm
02:00 AM 47.5°F8.6°C 45.3°F7.4°C 92% 5.0 mph SW8.0 kmh SW 10.0 mph16.1 kmh 29.46 in997.6 mb 0.00 in0.0 mm 0.00 in0.0 mm 0.02 in0.5 mm
02:05 AM 47.7°F8.7°C 45.5°F7.5°C 92% 6.0 mph SW9.7 kmh SW 12.0 mph19.3 kmh 29.46 in997.6 mb 0.00 in0.0 mm 0.00 in0.0 mm 0.02 in0.5 mm
02:10 AM 47.7°F8.7°C 45.1°F7.3°C 91% 6.0 mph SW9.7 kmh SW 12.0 mph19.3 kmh 29.46 in997.6 mb 0.00 in0.0 mm 0.00 in0.0 mm 0.02 in0.5 mm
02:15 AM 47.5°F8.6°C 45.0°F7.2°C 91% 5.0 mph SW8.0 kmh SW 13.0 mph20.9 kmh 29.46 in997.6 mb 0.00 in0.0 mm 0.00 in0.0 mm 0.02 in0.5 mm
02:20 AM 47.5°F8.6°C 45.0°F7.2°C 91% 5.0 mph SW8.0 kmh SW 13.0 mph20.9 kmh 29.46 in997.6 mb 0.00 in0.0 mm 0.00 in0.0 mm 0.02 in0.5 mm
02:25 AM 47.5°F8.6°C 45.0°F7.2°C 91% 5.0 mph SW8.0 kmh SW 13.0 mph20.9 kmh 29.46 in997.6 mb 0.00 in0.0 mm 0.00 in0.0 mm 0.02 in0.5 mm
02:30 AM 47.5°F8.6°C 45.0°F7.2°C 91% 5.0 mph SW8.0 kmh SW 13.0 mph20.9 kmh 29.46 in997.6 mb 0.00 in0.0 mm 0.00 in0.0 mm 0.02 in0.5 mm
02:35 AM 47.5°F8.6°C 44.6°F7.0°C 90% 6.0 mph SW9.7 kmh SW 13.0 mph20.9 kmh 29.46 in997.6 mb 0.00 in0.0 mm 0.00 in0.0 mm 0.02 in0.5 mm
02:40 AM 47.5°F8.6°C 44.6°F7.0°C 90% 5.0 mph SW8.0 kmh SW 13.0 mph20.9 kmh 29.46 in997.6 mb 0.00 in0.0 mm 0.00 in0.0 mm 0.02 in0.5 mm
02:45 AM 47.3°F8.5°C 44.6°F7.0°C 90% 5.0 mph SW8.0 kmh SW 11.0 mph17.7 kmh 29.46 in997.6 mb 0.00 in0.0 mm 0.00 in0.0 mm 0.02 in0.5 mm
02:50 AM 47.1°F8.4°C 44.2°F6.8°C 90% 4.0 mph SW6.4 kmh SW 11.0 mph17.7 kmh 29.46 in997.6 mb 0.00 in0.0 mm 0.00 in0.0 mm 0.02 in0.5 mm
02:55 AM 46.9°F8.3°C 44.4°F6.9°C 91% 3.0 mph SW4.8 kmh SW 9.0 mph14.5 kmh 29.46 in997.6 mb 0.00 in0.0 mm 0.00 in0.0 mm 0.02 in0.5 mm
03:00 AM 46.9°F8.3°C 44.4°F6.9°C 91% 3.0 mph SW4.8 kmh SW 9.0 mph14.5 kmh 29.46 in997.6 mb 0.00 in0.0 mm 0.00 in0.0 mm 0.02 in0.5 mm
03:05 AM 46.8°F8.2°C 44.2°F6.8°C 91% 3.0 mph SW4.8 kmh SW 8.0 mph12.9 kmh 29.46 in997.6 mb 0.00 in0.0 mm 0.00 in0.0 mm 0.02 in0.5 mm
03:10 AM 46.8°F8.2°C 44.2°F6.8°C 91% 3.0 mph SW4.8 kmh SW 9.0 mph14.5 kmh 29.46 in997.6 mb 0.00 in0.0 mm 0.00 in0.0 mm 0.02 in0.5 mm
03:15 AM 46.8°F8.2°C 44.2°F6.8°C 91% 3.0 mph SW4.8 kmh SW 9.0 mph14.5 kmh 29.46 in997.6 mb 0.00 in0.0 mm 0.00 in0.0 mm 0.02 in0.5 mm
03:20 AM 46.6°F8.1°C 44.1°F6.7°C 91% 3.0 mph SW4.8 kmh SW 9.0 mph14.5 kmh 29.46 in997.6 mb 0.00 in0.0 mm 0.00 in0.0 mm 0.02 in0.5 mm
03:25 AM 46.6°F8.1°C 44.1°F6.7°C 91% 4.0 mph SW6.4 kmh SW 9.0 mph14.5 kmh 29.46 in997.6 mb 0.00 in0.0 mm 0.00 in0.0 mm 0.02 in0.5 mm
03:30 AM 46.6°F8.1°C 44.1°F6.7°C 91% 3.0 mph SW4.8 kmh SW 9.0 mph14.5 kmh 29.46 in997.6 mb 0.00 in0.0 mm 0.00 in0.0 mm 0.02 in0.5 mm
03:35 AM 46.6°F8.1°C 44.1°F6.7°C 91% 2.0 mph SW3.2 kmh SW 8.0 mph12.9 kmh 29.46 in997.6 mb 0.00 in0.0 mm 0.00 in0.0 mm 0.02 in0.5 mm
03:40 AM 46.2°F7.9°C 43.9°F6.6°C 91% 2.0 mph SW3.2 kmh SW 7.0 mph11.3 kmh 29.46 in997.6 mb 0.00 in0.0 mm 0.00 in0.0 mm 0.02 in0.5 mm
03:45 AM 46.2°F7.9°C 43.7°F6.5°C 91% 2.0 mph SW3.2 kmh SW 6.0 mph9.7 kmh 29.46 in997.6 mb 0.00 in0.0 mm 0.00 in0.0 mm 0.02 in0.5 mm
03:50 AM 46.2°F7.9°C 43.9°F6.6°C 91% 2.0 mph SW3.2 kmh SW 8.0 mph12.9 kmh 29.47 in998.0 mb 0.00 in0.0 mm 0.00 in0.0 mm 0.02 in0.5 mm
03:55 AM 46.2°F7.9°C 43.9°F6.6°C 91% 3.0 mph SW4.8 kmh SW 8.0 mph12.9 kmh 29.47 in998.0 mb 0.00 in0.0 mm 0.00 in0.0 mm 0.02 in0.5 mm
04:00 AM 46.4°F8.0°C 43.9°F6.6°C 91% 3.0 mph SW4.8 kmh SW 5.0 mph8.0 kmh 29.47 in998.0 mb 0.00 in0.0 mm 0.00 in0.0 mm 0.02 in0.5 mm
04:05 AM 46.2°F7.9°C 43.9°F6.6°C 91% 2.0 mph SW3.2 kmh SW 7.0 mph11.3 kmh 29.47 in998.0 mb 0.00 in0.0 mm 0.00 in0.0 mm 0.02 in0.5 mm
04:10 AM 46.2°F7.9°C 43.9°F6.6°C 91% 2.0 mph SW3.2 kmh SW 7.0 mph11.3 kmh 29.47 in998.0 mb 0.00 in0.0 mm 0.00 in0.0 mm 0.02 in0.5 mm
04:15 AM 46.2°F7.9°C 43.9°F6.6°C 91% 2.0 mph SW3.2 kmh SW 6.0 mph9.7 kmh 29.48 in998.3 mb 0.00 in0.0 mm 0.00 in0.0 mm 0.02 in0.5 mm
04:20 AM 46.4°F8.0°C 43.9°F6.6°C 91% 3.0 mph SW4.8 kmh SW 8.0 mph12.9 kmh 29.48 in998.3 mb 0.00 in0.0 mm 0.00 in0.0 mm 0.02 in0.5 mm
04:25 AM 46.2°F7.9°C 43.9°F6.6°C 91% 3.0 mph SW4.8 kmh SW 8.0 mph12.9 kmh 29.48 in998.3 mb 0.00 in0.0 mm 0.00 in0.0 mm 0.02 in0.5 mm
04:30 AM 46.2°F7.9°C 43.9°F6.6°C 91% 3.0 mph SW4.8 kmh SW 6.0 mph9.7 kmh 29.48 in998.3 mb 0.00 in0.0 mm 0.00 in0.0 mm 0.02 in0.5 mm
04:35 AM 46.2°F7.9°C 43.9°F6.6°C 91% 3.0 mph SW4.8 kmh SW 7.0 mph11.3 kmh 29.48 in998.3 mb 0.00 in0.0 mm 0.00 in0.0 mm 0.02 in0.5 mm
04:40 AM 46.2°F7.9°C 43.7°F6.5°C 91% 3.0 mph SW4.8 kmh SW 7.0 mph11.3 kmh 29.48 in998.3 mb 0.00 in0.0 mm 0.00 in0.0 mm 0.02 in0.5 mm
04:45 AM 46.0°F7.8°C 43.7°F6.5°C 91% 3.0 mph SW4.8 kmh SW 6.0 mph9.7 kmh 29.48 in998.3 mb 0.00 in0.0 mm 0.00 in0.0 mm 0.02 in0.5 mm
04:50 AM 46.2°F7.9°C 43.7°F6.5°C 91% 3.0 mph SW4.8 kmh SW 7.0 mph11.3 kmh 29.48 in998.3 mb 0.00 in0.0 mm 0.00 in0.0 mm 0.02 in0.5 mm
04:55 AM 46.0°F7.8°C 43.7°F6.5°C 91% 3.0 mph SW4.8 kmh SW 7.0 mph11.3 kmh 29.48 in998.3 mb 0.00 in0.0 mm 0.00 in0.0 mm 0.02 in0.5 mm
05:00 AM 46.0°F7.8°C 43.7°F6.5°C 91% 3.0 mph SW4.8 kmh SW 8.0 mph12.9 kmh 29.48 in998.3 mb 0.00 in0.0 mm 0.00 in0.0 mm 0.02 in0.5 mm
05:05 AM 46.0°F7.8°C 43.5°F6.4°C 91% 3.0 mph SW4.8 kmh SW 8.0 mph12.9 kmh 29.48 in998.3 mb 0.00 in0.0 mm 0.00 in0.0 mm 0.02 in0.5 mm
05:10 AM 46.0°F7.8°C 43.5°F6.4°C 91% 2.0 mph SW3.2 kmh SW 6.0 mph9.7 kmh 29.48 in998.3 mb 0.00 in0.0 mm 0.00 in0.0 mm 0.02 in0.5 mm
05:15 AM 45.9°F7.7°C 43.3°F6.3°C 91% 2.0 mph SW3.2 kmh SW 6.0 mph9.7 kmh 29.48 in998.3 mb 0.00 in0.0 mm 0.00 in0.0 mm 0.02 in0.5 mm
05:20 AM 45.9°F7.7°C 43.3°F6.3°C 91% 2.0 mph SW3.2 kmh SW 6.0 mph9.7 kmh 29.49 in998.6 mb 0.00 in0.0 mm 0.00 in0.0 mm 0.02 in0.5 mm
05:25 AM 45.9°F7.7°C 43.3°F6.3°C 91% 2.0 mph SW3.2 kmh SW 6.0 mph9.7 kmh 29.49 in998.6 mb 0.00 in0.0 mm 0.00 in0.0 mm 0.02 in0.5 mm
05:30 AM 45.9°F7.7°C 43.3°F6.3°C 91% 2.0 mph SW3.2 kmh SW 4.0 mph6.4 kmh 29.49 in998.6 mb 0.00 in0.0 mm 0.00 in0.0 mm 0.02 in0.5 mm
05:35 AM 45.9°F7.7°C 43.3°F6.3°C 91% 1.0 mph SW1.6 kmh SW 4.0 mph6.4 kmh 29.49 in998.6 mb 0.00 in0.0 mm 0.00 in0.0 mm 0.02 in0.5 mm
05:40 AM 45.9°F7.7°C 43.3°F6.3°C 91% Calm Calm 4.0 mph6.4 kmh 29.49 in998.6 mb 0.00 in0.0 mm 0.00 in0.0 mm 0.02 in0.5 mm
05:45 AM 45.9°F7.7°C 43.3°F6.3°C 91% 1.0 mph SW1.6 kmh SW 3.0 mph4.8 kmh 29.49 in998.6 mb 0.00 in0.0 mm 0.00 in0.0 mm 0.02 in0.5 mm
05:50 AM 45.9°F7.7°C 43.3°F6.3°C 91% 1.0 mph SW1.6 kmh SW 3.0 mph4.8 kmh 29.49 in998.6 mb 0.00 in0.0 mm 0.00 in0.0 mm 0.02 in0.5 mm
05:55 AM 45.7°F7.6°C 43.2°F6.2°C 91% Calm Calm 2.0 mph3.2 kmh 29.50 in999.0 mb 0.00 in0.0 mm 0.00 in0.0 mm 0.02 in0.5 mm
06:00 AM 45.7°F7.6°C 43.2°F6.2°C 91% Calm Calm 5.0 mph8.0 kmh 29.50 in999.0 mb 0.00 in0.0 mm 0.00 in0.0 mm 0.02 in0.5 mm
06:05 AM 45.7°F7.6°C 43.2°F6.2°C 91% 1.0 mph SW1.6 kmh SW 8.0 mph12.9 kmh 29.50 in999.0 mb 0.00 in0.0 mm 0.00 in0.0 mm 0.02 in0.5 mm
06:10 AM 45.7°F7.6°C 42.8°F6.0°C 90% 2.0 mph SW3.2 kmh SW 8.0 mph12.9 kmh 29.50 in999.0 mb 0.00 in0.0 mm 0.00 in0.0 mm 0.02 in0.5 mm
06:15 AM 45.7°F7.6°C 43.2°F6.2°C 91% 2.0 mph SW3.2 kmh SW 6.0 mph9.7 kmh 29.50 in999.0 mb 0.00 in0.0 mm 0.00 in0.0 mm 0.02 in0.5 mm
06:20 AM 45.7°F7.6°C 42.8°F6.0°C 90% 2.0 mph SW3.2 kmh SW 6.0 mph9.7 kmh 29.50 in999.0 mb 0.00 in0.0 mm 0.00 in0.0 mm 0.02 in0.5 mm
06:25 AM 45.7°F7.6°C 42.8°F6.0°C 90% 2.0 mph SW3.2 kmh SW 6.0 mph9.7 kmh 29.50 in999.0 mb 0.00 in0.0 mm 0.00 in0.0 mm 0.02 in0.5 mm
06:30 AM 45.7°F7.6°C 42.8°F6.0°C 90% 2.0 mph WSW3.2 kmh WSW 6.0 mph9.7 kmh 29.50 in999.0 mb 0.00 in0.0 mm 0.00 in0.0 mm 0.02 in0.5 mm
06:35 AM 45.7°F7.6°C 42.8°F6.0°C 90% 1.0 mph WSW1.6 kmh WSW 5.0 mph8.0 kmh 29.51 in999.3 mb 0.00 in0.0 mm 0.00 in0.0 mm 0.02 in0.5 mm
06:40 AM 45.5°F7.5°C 42.8°F6.0°C 90% 1.0 mph WSW1.6 kmh WSW 5.0 mph8.0 kmh 29.51 in999.3 mb 0.00 in0.0 mm 0.00 in0.0 mm 0.02 in0.5 mm
06:45 AM 45.5°F7.5°C 42.8°F6.0°C 90% 1.0 mph WSW1.6 kmh WSW 5.0 mph8.0 kmh 29.51 in999.3 mb 0.00 in0.0 mm 0.00 in0.0 mm 0.02 in0.5 mm
06:50 AM 45.5°F7.5°C 42.8°F6.0°C 90% 1.0 mph WSW1.6 kmh WSW 5.0 mph8.0 kmh 29.51 in999.3 mb 0.00 in0.0 mm 0.00 in0.0 mm 0.02 in0.5 mm
06:55 AM 45.5°F7.5°C 42.8°F6.0°C 90% 1.0 mph WSW1.6 kmh WSW 5.0 mph8.0 kmh 29.51 in999.3 mb 0.00 in0.0 mm 0.00 in0.0 mm 0.02 in0.5 mm
07:00 AM 45.3°F7.4°C 42.6°F5.9°C 90% 1.0 mph WSW1.6 kmh WSW 6.0 mph9.7 kmh 29.51 in999.3 mb 0.00 in0.0 mm 0.00 in0.0 mm 0.02 in0.5 mm
07:05 AM 45.3°F7.4°C 42.6°F5.9°C 90% 1.0 mph WSW1.6 kmh WSW 6.0 mph9.7 kmh 29.52 in999.7 mb 0.00 in0.0 mm 0.00 in0.0 mm 0.02 in0.5 mm
07:10 AM 45.5°F7.5°C 42.8°F6.0°C 90% 1.0 mph WSW1.6 kmh WSW 6.0 mph9.7 kmh 29.52 in999.7 mb 0.00 in0.0 mm 0.00 in0.0 mm 0.02 in0.5 mm
07:15 AM 45.5°F7.5°C 42.8°F6.0°C 90% Calm Calm 4.0 mph6.4 kmh 29.53 in1000.0 mb 0.00 in0.0 mm 0.00 in0.0 mm 0.02 in0.5 mm
07:20 AM 45.5°F7.5°C 42.8°F6.0°C 90% Calm Calm 3.0 mph4.8 kmh 29.53 in1000.0 mb 0.00 in0.0 mm 0.00 in0.0 mm 0.02 in0.5 mm
07:25 AM 45.7°F7.6°C 43.0°F6.1°C 90% Calm Calm 3.0 mph4.8 kmh 29.53 in1000.0 mb 0.00 in0.0 mm 0.00 in0.0 mm 0.02 in0.5 mm
07:30 AM 45.9°F7.7°C 43.2°F6.2°C 90% Calm Calm 2.0 mph3.2 kmh 29.53 in1000.0 mb 0.00 in0.0 mm 0.00 in0.0 mm 0.02 in0.5 mm
07:35 AM 46.0°F7.8°C 43.2°F6.2°C 90% 1.0 mph SW1.6 kmh SW 6.0 mph9.7 kmh 29.53 in1000.0 mb 0.00 in0.0 mm 0.00 in0.0 mm 0.02 in0.5 mm
07:40 AM 46.2°F7.9°C 43.3°F6.3°C 90% 1.0 mph SW1.6 kmh SW 6.0 mph9.7 kmh 29.54 in1000.3 mb 0.00 in0.0 mm 0.00 in0.0 mm 0.02 in0.5 mm
07:45 AM 46.2°F7.9°C 43.5°F6.4°C 90% 1.0 mph SW1.6 kmh SW 5.0 mph8.0 kmh 29.54 in1000.3 mb 0.00 in0.0 mm 0.00 in0.0 mm 0.02 in0.5 mm
07:50 AM 46.4°F8.0°C 43.3°F6.3°C 89% 1.0 mph SW1.6 kmh SW 5.0 mph8.0 kmh 29.54 in1000.3 mb 0.00 in0.0 mm 0.00 in0.0 mm 0.02 in0.5 mm
07:55 AM 46.6°F8.1°C 43.5°F6.4°C 89% 2.0 mph SW3.2 kmh SW 7.0 mph11.3 kmh 29.54 in1000.3 mb 0.00 in0.0 mm 0.00 in0.0 mm 0.02 in0.5 mm
08:00 AM 46.8°F8.2°C 43.7°F6.5°C 89% 2.0 mph SW3.2 kmh SW 7.0 mph11.3 kmh 29.54 in1000.3 mb 0.00 in0.0 mm 0.00 in0.0 mm 0.02 in0.5 mm
08:05 AM 46.8°F8.2°C 43.7°F6.5°C 89% 2.0 mph SW3.2 kmh SW 5.0 mph8.0 kmh 29.54 in1000.3 mb 0.00 in0.0 mm 0.00 in0.0 mm 0.02 in0.5 mm
08:10 AM 46.9°F8.3°C 43.5°F6.4°C 88% 2.0 mph SW3.2 kmh SW 6.0 mph9.7 kmh 29.54 in1000.3 mb 0.00 in0.0 mm 0.00 in0.0 mm 0.02 in0.5 mm
08:15 AM 46.9°F8.3°C 43.7°F6.5°C 88% 2.0 mph SW3.2 kmh SW 6.0 mph9.7 kmh 29.55 in1000.7 mb 0.00 in0.0 mm 0.00 in0.0 mm 0.02 in0.5 mm
08:20 AM 47.1°F8.4°C 43.9°F6.6°C 88% 2.0 mph SW3.2 kmh SW 6.0 mph9.7 kmh 29.55 in1000.7 mb 0.00 in0.0 mm 0.00 in0.0 mm 0.02 in0.5 mm
08:25 AM 47.1°F8.4°C 43.5°F6.4°C 87% 2.0 mph WSW3.2 kmh WSW 5.0 mph8.0 kmh 29.55 in1000.7 mb 0.00 in0.0 mm 0.00 in0.0 mm 0.02 in0.5 mm
08:30 AM 47.5°F8.6°C 43.7°F6.5°C 87% 2.0 mph WSW3.2 kmh WSW 6.0 mph9.7 kmh 29.55 in1000.7 mb 0.00 in0.0 mm 0.00 in0.0 mm 0.02 in0.5 mm
08:35 AM 47.7°F8.7°C 43.9°F6.6°C 87% 1.0 mph WSW1.6 kmh WSW 6.0 mph9.7 kmh 29.55 in1000.7 mb 0.00 in0.0 mm 0.00 in0.0 mm 0.02 in0.5 mm
08:40 AM 47.8°F8.8°C 44.2°F6.8°C 87% 1.0 mph SW1.6 kmh SW 5.0 mph8.0 kmh 29.55 in1000.7 mb 0.00 in0.0 mm 0.00 in0.0 mm 0.02 in0.5 mm
08:45 AM 48.2°F9.0°C 44.2°F6.8°C 86% 2.0 mph SW3.2 kmh SW 9.0 mph14.5 kmh 29.55 in1000.7 mb 0.00 in0.0 mm 0.00 in0.0 mm 0.02 in0.5 mm
08:50 AM 48.6°F9.2°C 44.4°F6.9°C 86% 3.0 mph SW4.8 kmh SW 9.0 mph14.5 kmh 29.55 in1000.7 mb 0.00 in0.0 mm 0.00 in0.0 mm 0.02 in0.5 mm
08:55 AM 48.7°F9.3°C 44.4°F6.9°C 85% 2.0 mph WSW3.2 kmh WSW 8.0 mph12.9 kmh 29.55 in1000.7 mb 0.00 in0.0 mm 0.00 in0.0 mm 0.02 in0.5 mm
09:00 AM 49.3°F9.6°C 45.0°F7.2°C 85% 1.0 mph WSW1.6 kmh WSW 8.0 mph12.9 kmh 29.55 in1000.7 mb 0.00 in0.0 mm 0.00 in0.0 mm 0.02 in0.5 mm
09:05 AM 49.5°F9.7°C 44.8°F7.1°C 84% 2.0 mph WSW3.2 kmh WSW 9.0 mph14.5 kmh 29.56 in1001.0 mb 0.00 in0.0 mm 0.00 in0.0 mm 0.02 in0.5 mm
09:10 AM 49.6°F9.8°C 44.8°F7.1°C 83% 3.0 mph WSW4.8 kmh WSW 9.0 mph14.5 kmh 29.56 in1001.0 mb 0.00 in0.0 mm 0.00 in0.0 mm 0.02 in0.5 mm
09:15 AM 50.2°F10.1°C 44.8°F7.1°C 82% 2.0 mph WSW3.2 kmh WSW 9.0 mph14.5 kmh 29.56 in1001.0 mb 0.00 in0.0 mm 0.00 in0.0 mm 0.02 in0.5 mm
09:20 AM 50.4°F10.2°C 45.3°F7.4°C 83% 2.0 mph WSW3.2 kmh WSW 8.0 mph12.9 kmh 29.56 in1001.0 mb 0.00 in0.0 mm 0.00 in0.0 mm 0.02 in0.5 mm
09:25 AM 50.5°F10.3°C 45.3°F7.4°C 82% 3.0 mph WSW4.8 kmh WSW 8.0 mph12.9 kmh 29.56 in1001.0 mb 0.00 in0.0 mm 0.00 in0.0 mm 0.02 in0.5 mm
09:30 AM 50.7°F10.4°C 45.1°F7.3°C 81% 3.0 mph SW4.8 kmh SW 7.0 mph11.3 kmh 29.56 in1001.0 mb 0.00 in0.0 mm 0.00 in0.0 mm 0.02 in0.5 mm
09:35 AM 50.7°F10.4°C 45.1°F7.3°C 81% 3.0 mph SW4.8 kmh SW 8.0 mph12.9 kmh 29.57 in1001.4 mb 0.00 in0.0 mm 0.00 in0.0 mm 0.02 in0.5 mm
09:40 AM 50.9°F10.5°C 45.3°F7.4°C 81% 3.0 mph SW4.8 kmh SW 8.0 mph12.9 kmh 29.57 in1001.4 mb 0.00 in0.0 mm 0.00 in0.0 mm 0.02 in0.5 mm
09:45 AM 51.1°F10.6°C 45.5°F7.5°C 81% 3.0 mph SW4.8 kmh SW 8.0 mph12.9 kmh 29.57 in1001.4 mb 0.00 in0.0 mm 0.00 in0.0 mm 0.02 in0.5 mm
09:50 AM 51.1°F10.6°C 45.1°F7.3°C 80% 3.0 mph SW4.8 kmh SW 12.0 mph19.3 kmh 29.57 in1001.4 mb 0.00 in0.0 mm 0.00 in0.0 mm 0.02 in0.5 mm
09:55 AM 51.3°F10.7°C 45.0°F7.2°C 79% 4.0 mph SW6.4 kmh SW 12.0 mph19.3 kmh 29.57 in1001.4 mb 0.00 in0.0 mm 0.00 in0.0 mm 0.02 in0.5 mm
10:00 AM 51.3°F10.7°C 45.0°F7.2°C 79% 5.0 mph SW8.0 kmh SW 10.0 mph16.1 kmh 29.57 in1001.4 mb 0.00 in0.0 mm 0.00 in0.0 mm 0.02 in0.5 mm
10:05 AM 51.3°F10.7°C 44.6°F7.0°C 78% 6.0 mph SW9.7 kmh SW 10.0 mph16.1 kmh 29.57 in1001.4 mb 0.00 in0.0 mm 0.00 in0.0 mm 0.02 in0.5 mm
10:10 AM 51.3°F10.7°C 44.6°F7.0°C 78% 6.0 mph SW9.7 kmh SW 11.0 mph17.7 kmh 29.57 in1001.4 mb 0.00 in0.0 mm 0.00 in0.0 mm 0.02 in0.5 mm
10:15 AM 51.1°F10.6°C 44.8°F7.1°C 79% 5.0 mph SW8.0 kmh SW 11.0 mph17.7 kmh 29.58 in1001.7 mb 0.00 in0.0 mm 0.00 in0.0 mm 0.02 in0.5 mm
10:20 AM 50.7°F10.4°C 44.6°F7.0°C 79% 5.0 mph SW8.0 kmh SW 11.0 mph17.7 kmh 29.58 in1001.7 mb 0.00 in0.0 mm 0.00 in0.0 mm 0.02 in0.5 mm
10:25 AM 50.7°F10.4°C 44.2°F6.8°C 78% 4.0 mph SW6.4 kmh SW 11.0 mph17.7 kmh 29.58 in1001.7 mb 0.00 in0.0 mm 0.00 in0.0 mm 0.02 in0.5 mm
10:30 AM 50.7°F10.4°C 44.6°F7.0°C 79% 3.0 mph WSW4.8 kmh WSW 8.0 mph12.9 kmh 29.58 in1001.7 mb 0.00 in0.0 mm 0.00 in0.0 mm 0.02 in0.5 mm
10:35 AM 50.7°F10.4°C 44.4°F6.9°C 79% 4.0 mph SW6.4 kmh SW 9.0 mph14.5 kmh 29.58 in1001.7 mb 0.00 in0.0 mm 0.00 in0.0 mm 0.02 in0.5 mm
10:40 AM 50.7°F10.4°C 44.6°F7.0°C 79% 4.0 mph SW6.4 kmh SW 9.0 mph14.5 kmh 29.58 in1001.7 mb 0.00 in0.0 mm 0.00 in0.0 mm 0.02 in0.5 mm
10:45 AM 50.7°F10.4°C 44.6°F7.0°C 79% 3.0 mph SW4.8 kmh SW 9.0 mph14.5 kmh 29.58 in1001.7 mb 0.00 in0.0 mm 0.00 in0.0 mm 0.02 in0.5 mm
10:50 AM 51.1°F10.6°C 44.8°F7.1°C 79% 4.0 mph SW6.4 kmh SW 9.0 mph14.5 kmh 29.58 in1001.7 mb 0.00 in0.0 mm 0.00 in0.0 mm 0.02 in0.5 mm
10:55 AM 51.3°F10.7°C 44.6°F7.0°C 78% 4.0 mph SW6.4 kmh SW 9.0 mph14.5 kmh 29.59 in1002.0 mb 0.00 in0.0 mm 0.00 in0.0 mm 0.02 in0.5 mm
11:00 AM 51.6°F10.9°C 45.0°F7.2°C 78% 3.0 mph SW4.8 kmh SW 9.0 mph14.5 kmh 29.59 in1002.0 mb 0.00 in0.0 mm 0.00 in0.0 mm 0.02 in0.5 mm
11:05 AM 51.8°F11.0°C 44.8°F7.1°C 77% 3.0 mph SW4.8 kmh SW 9.0 mph14.5 kmh 29.59 in1002.0 mb 0.00 in0.0 mm 0.00 in0.0 mm 0.02 in0.5 mm
11:10 AM 52.2°F11.2°C 44.8°F7.1°C 76% 3.0 mph SW4.8 kmh SW 9.0 mph14.5 kmh 29.59 in1002.0 mb 0.00 in0.0 mm 0.00 in0.0 mm 0.02 in0.5 mm
11:15 AM 52.2°F11.2°C 44.8°F7.1°C 76% 3.0 mph SW4.8 kmh SW 11.0 mph17.7 kmh 29.59 in1002.0 mb 0.00 in0.0 mm 0.00 in0.0 mm 0.02 in0.5 mm
11:20 AM 52.2°F11.2°C 44.8°F7.1°C 76% 3.0 mph SW4.8 kmh SW 11.0 mph17.7 kmh 29.59 in1002.0 mb 0.00 in0.0 mm 0.00 in0.0 mm 0.02 in0.5 mm
11:25 AM 52.3°F11.3°C 44.4°F6.9°C 74% 3.0 mph WSW4.8 kmh WSW 10.0 mph16.1 kmh 29.59 in1002.0 mb 0.00 in0.0 mm 0.00 in0.0 mm 0.02 in0.5 mm
11:30 AM 52.9°F11.6°C 44.8°F7.1°C 74% 3.0 mph WSW4.8 kmh WSW 10.0 mph16.1 kmh 29.59 in1002.0 mb 0.00 in0.0 mm 0.00 in0.0 mm 0.02 in0.5 mm
11:35 AM 53.4°F11.9°C 45.1°F7.3°C 73% 2.0 mph WSW3.2 kmh WSW 9.0 mph14.5 kmh 29.59 in1002.0 mb 0.00 in0.0 mm 0.00 in0.0 mm 0.02 in0.5 mm
11:40 AM 53.8°F12.1°C 44.1°F6.7°C 70% 2.0 mph WSW3.2 kmh WSW 10.0 mph16.1 kmh 29.59 in1002.0 mb 0.00 in0.0 mm 0.00 in0.0 mm 0.02 in0.5 mm
11:45 AM 53.4°F11.9°C 44.2°F6.8°C 71% 3.0 mph WSW4.8 kmh WSW 10.0 mph16.1 kmh 29.59 in1002.0 mb 0.00 in0.0 mm 0.00 in0.0 mm 0.02 in0.5 mm
11:50 AM 53.2°F11.8°C 43.7°F6.5°C 70% 2.0 mph WSW3.2 kmh WSW 10.0 mph16.1 kmh 29.59 in1002.0 mb 0.00 in0.0 mm 0.00 in0.0 mm 0.02 in0.5 mm
11:55 AM 53.1°F11.7°C 43.9°F6.6°C 71% 2.0 mph WSW3.2 kmh WSW 6.0 mph9.7 kmh 29.59 in1002.0 mb 0.00 in0.0 mm 0.00 in0.0 mm 0.02 in0.5 mm
12:00 PM 53.1°F11.7°C 43.9°F6.6°C 71% 2.0 mph WSW3.2 kmh WSW 8.0 mph12.9 kmh 29.59 in1002.0 mb 0.00 in0.0 mm 0.00 in0.0 mm 0.02 in0.5 mm
12:05 PM 53.2°F11.8°C 44.1°F6.7°C 71% 2.0 mph WSW3.2 kmh WSW 8.0 mph12.9 kmh 29.59 in1002.0 mb 0.00 in0.0 mm 0.00 in0.0 mm 0.02 in0.5 mm
12:10 PM 53.2°F11.8°C 44.1°F6.7°C 71% 2.0 mph WSW3.2 kmh WSW 7.0 mph11.3 kmh 29.59 in1002.0 mb 0.00 in0.0 mm 0.00 in0.0 mm 0.02 in0.5 mm
12:15 PM 53.2°F11.8°C 44.1°F6.7°C 71% 2.0 mph WSW3.2 kmh WSW 7.0 mph11.3 kmh 29.58 in1001.7 mb 0.00 in0.0 mm 0.00 in0.0 mm 0.02 in0.5 mm
12:20 PM 53.2°F11.8°C 44.1°F6.7°C 71% 3.0 mph WSW4.8 kmh WSW 8.0 mph12.9 kmh 29.59 in1002.0 mb 0.00 in0.0 mm 0.00 in0.0 mm 0.02 in0.5 mm
12:25 PM 53.4°F11.9°C 43.9°F6.6°C 70% 3.0 mph WSW4.8 kmh WSW 8.0 mph12.9 kmh 29.58 in1001.7 mb 0.00 in0.0 mm 0.00 in0.0 mm 0.02 in0.5 mm
12:30 PM 53.4°F11.9°C 43.5°F6.4°C 69% 3.0 mph WSW4.8 kmh WSW 8.0 mph12.9 kmh 29.58 in1001.7 mb 0.00 in0.0 mm 0.00 in0.0 mm 0.02 in0.5 mm
12:35 PM 53.2°F11.8°C 43.3°F6.3°C 69% 2.0 mph WSW3.2 kmh WSW 7.0 mph11.3 kmh 29.58 in1001.7 mb 0.00 in0.0 mm 0.00 in0.0 mm 0.02 in0.5 mm
12:40 PM 53.2°F11.8°C 43.3°F6.3°C 69% 1.0 mph WSW1.6 kmh WSW 6.0 mph9.7 kmh 29.58 in1001.7 mb 0.00 in0.0 mm 0.00 in0.0 mm 0.02 in0.5 mm
12:45 PM 53.4°F11.9°C 43.2°F6.2°C 68% 2.0 mph WSW3.2 kmh WSW 7.0 mph11.3 kmh 29.58 in1001.7 mb 0.00 in0.0 mm 0.00 in0.0 mm 0.02 in0.5 mm
12:50 PM 53.4°F11.9°C 42.8°F6.0°C 67% 3.0 mph WSW4.8 kmh WSW 11.0 mph17.7 kmh 29.58 in1001.7 mb 0.00 in0.0 mm 0.00 in0.0 mm 0.02 in0.5 mm
12:55 PM 53.4°F11.9°C 42.8°F6.0°C 67% 3.0 mph WSW4.8 kmh WSW 11.0 mph17.7 kmh 29.58 in1001.7 mb 0.00 in0.0 mm 0.00 in0.0 mm 0.02 in0.5 mm
01:00 PM 53.4°F11.9°C 42.8°F6.0°C 67% 2.0 mph WSW3.2 kmh WSW 8.0 mph12.9 kmh 29.58 in1001.7 mb 0.00 in0.0 mm 0.00 in0.0 mm 0.02 in0.5 mm
01:05 PM 53.8°F12.1°C 42.6°F5.9°C 66% 2.0 mph WSW3.2 kmh WSW 8.0 mph12.9 kmh 29.58 in1001.7 mb 0.00 in0.0 mm 0.00 in0.0 mm 0.02 in0.5 mm
01:10 PM 53.6°F12.0°C 42.4°F5.8°C 66% 2.0 mph WSW3.2 kmh WSW 11.0 mph17.7 kmh 29.58 in1001.7 mb 0.00 in0.0 mm 0.00 in0.0 mm 0.02 in0.5 mm
01:15 PM 53.8°F12.1°C 42.6°F5.9°C 66% 3.0 mph WSW4.8 kmh WSW 11.0 mph17.7 kmh 29.58 in1001.7 mb 0.00 in0.0 mm 0.00 in0.0 mm 0.02 in0.5 mm
01:20 PM 54.7°F12.6°C 43.2°F6.2°C 65% 3.0 mph WSW4.8 kmh WSW 10.0 mph16.1 kmh 29.58 in1001.7 mb 0.00 in0.0 mm 0.00 in0.0 mm 0.02 in0.5 mm
01:25 PM 54.7°F12.6°C 42.3°F5.7°C 63% 3.0 mph WSW4.8 kmh WSW 10.0 mph16.1 kmh 29.58 in1001.7 mb 0.00 in0.0 mm 0.00 in0.0 mm 0.02 in0.5 mm
01:30 PM 54.7°F12.6°C 42.3°F5.7°C 63% 3.0 mph W4.8 kmh W 10.0 mph16.1 kmh 29.58 in1001.7 mb 0.00 in0.0 mm 0.00 in0.0 mm 0.02 in0.5 mm
01:35 PM 54.3°F12.4°C 42.1°F5.6°C 63% 2.0 mph W3.2 kmh W 10.0 mph16.1 kmh 29.58 in1001.7 mb 0.00 in0.0 mm 0.00 in0.0 mm 0.02 in0.5 mm
01:40 PM 54.1°F12.3°C 42.3°F5.7°C 64% 2.0 mph WSW3.2 kmh WSW 14.0 mph22.5 kmh 29.58 in1001.7 mb 0.00 in0.0 mm 0.00 in0.0 mm 0.02 in0.5 mm
01:45 PM 53.8°F12.1°C 41.7°F5.4°C 64% 3.0 mph WSW4.8 kmh WSW 14.0 mph22.5 kmh 29.58 in1001.7 mb 0.00 in0.0 mm 0.00 in0.0 mm 0.02 in0.5 mm
01:50 PM 53.8°F12.1°C 41.5°F5.3°C 63% 3.0 mph WSW4.8 kmh WSW 11.0 mph17.7 kmh 29.58 in1001.7 mb 0.00 in0.0 mm 0.00 in0.0 mm 0.02 in0.5 mm
01:55 PM 54.5°F12.5°C 42.1°F5.6°C 63% 4.0 mph WSW6.4 kmh WSW 11.0 mph17.7 kmh 29.58 in1001.7 mb 0.00 in0.0 mm 0.00 in0.0 mm 0.02 in0.5 mm
02:00 PM 55.0°F12.8°C 41.4°F5.2°C 60% 4.0 mph WSW6.4 kmh WSW 11.0 mph17.7 kmh 29.59 in1002.0 mb 0.00 in0.0 mm 0.00 in0.0 mm 0.02 in0.5 mm
02:05 PM 55.6°F13.1°C 40.5°F4.7°C 57% 5.0 mph WSW8.0 kmh WSW 18.0 mph29.0 kmh 29.59 in1002.0 mb 0.00 in0.0 mm 0.00 in0.0 mm 0.02 in0.5 mm
02:10 PM 56.1°F13.4°C 40.6°F4.8°C 56% 5.0 mph WSW8.0 kmh WSW 18.0 mph29.0 kmh 29.59 in1002.0 mb 0.00 in0.0 mm 0.00 in0.0 mm 0.02 in0.5 mm
02:15 PM 55.6°F13.1°C 40.5°F4.7°C 57% 4.0 mph WSW6.4 kmh WSW 12.0 mph19.3 kmh 29.59 in1002.0 mb 0.00 in0.0 mm 0.00 in0.0 mm 0.02 in0.5 mm
02:20 PM 55.0°F12.8°C 40.1°F4.5°C 57% 3.0 mph W4.8 kmh W 11.0 mph17.7 kmh 29.59 in1002.0 mb 0.00 in0.0 mm 0.00 in0.0 mm 0.02 in0.5 mm
02:25 PM 55.0°F12.8°C 40.6°F4.8°C 58% 3.0 mph W4.8 kmh W 11.0 mph17.7 kmh 29.59 in1002.0 mb 0.00 in0.0 mm 0.00 in0.0 mm 0.02 in0.5 mm
02:30 PM 54.7°F12.6°C 40.6°F4.8°C 59% 4.0 mph W6.4 kmh W 11.0 mph17.7 kmh 29.59 in1002.0 mb 0.00 in0.0 mm 0.00 in0.0 mm 0.02 in0.5 mm
02:35 PM 54.3°F12.4°C 40.6°F4.8°C 60% 4.0 mph WNW6.4 kmh WNW 10.0 mph16.1 kmh 29.59 in1002.0 mb 0.00 in0.0 mm 0.00 in0.0 mm 0.02 in0.5 mm
02:40 PM 54.3°F12.4°C 40.6°F4.8°C 60% 2.0 mph W3.2 kmh W 9.0 mph14.5 kmh 29.59 in1002.0 mb 0.00 in0.0 mm 0.00 in0.0 mm 0.02 in0.5 mm
02:45 PM 54.1°F12.3°C 40.5°F4.7°C 60% 3.0 mph W4.8 kmh W 12.0 mph19.3 kmh 29.59 in1002.0 mb 0.00 in0.0 mm 0.00 in0.0 mm 0.02 in0.5 mm
02:50 PM 54.0°F12.2°C 40.3°F4.6°C 60% 4.0 mph W6.4 kmh W 15.0 mph24.1 kmh 29.59 in1002.0 mb 0.00 in0.0 mm 0.00 in0.0 mm 0.02 in0.5 mm
02:55 PM 54.0°F12.2°C 40.3°F4.6°C 60% 4.0 mph W6.4 kmh W 15.0 mph24.1 kmh 29.60 in1002.4 mb 0.00 in0.0 mm 0.00 in0.0 mm 0.02 in0.5 mm
03:00 PM 54.0°F12.2°C 40.5°F4.7°C 60% 4.0 mph W6.4 kmh W 12.0 mph19.3 kmh 29.60 in1002.4 mb 0.00 in0.0 mm 0.00 in0.0 mm 0.02 in0.5 mm
03:05 PM 54.3°F12.4°C 40.3°F4.6°C 59% 4.0 mph W6.4 kmh W 12.0 mph19.3 kmh 29.60 in1002.4 mb 0.00 in0.0 mm 0.00 in0.0 mm 0.02 in0.5 mm
03:10 PM 54.7°F12.6°C 40.3°F4.6°C 58% 4.0 mph W6.4 kmh W 9.0 mph14.5 kmh 29.60 in1002.4 mb 0.00 in0.0 mm 0.00 in0.0 mm 0.02 in0.5 mm
03:15 PM 54.5°F12.5°C 40.5°F4.7°C 59% 3.0 mph WNW4.8 kmh WNW 10.0 mph16.1 kmh 29.60 in1002.4 mb 0.00 in0.0 mm 0.00 in0.0 mm 0.02 in0.5 mm
03:20 PM 54.5°F12.5°C 41.4°F5.2°C 61% 2.0 mph W3.2 kmh W 10.0 mph16.1 kmh 29.60 in1002.4 mb 0.00 in0.0 mm 0.00 in0.0 mm 0.02 in0.5 mm
03:25 PM 54.3°F12.4°C 41.5°F5.3°C 62% 2.0 mph WSW3.2 kmh WSW 7.0 mph11.3 kmh 29.60 in1002.4 mb 0.00 in0.0 mm 0.00 in0.0 mm 0.02 in0.5 mm
03:30 PM 54.0°F12.2°C 41.7°F5.4°C 63% 3.0 mph WSW4.8 kmh WSW 11.0 mph17.7 kmh 29.60 in1002.4 mb 0.00 in0.0 mm 0.00 in0.0 mm 0.02 in0.5 mm
03:35 PM 54.0°F12.2°C 42.1°F5.6°C 64% 3.0 mph WSW4.8 kmh WSW 11.0 mph17.7 kmh 29.60 in1002.4 mb 0.00 in0.0 mm 0.00 in0.0 mm 0.02 in0.5 mm
03:40 PM 53.6°F12.0°C 41.7°F5.4°C 64% 3.0 mph WSW4.8 kmh WSW 10.0 mph16.1 kmh 29.60 in1002.4 mb 0.00 in0.0 mm 0.00 in0.0 mm 0.02 in0.5 mm
03:45 PM 53.6°F12.0°C 41.4°F5.2°C 63% 3.0 mph WSW4.8 kmh WSW 13.0 mph20.9 kmh 29.60 in1002.4 mb 0.00 in0.0 mm 0.00 in0.0 mm 0.02 in0.5 mm
03:50 PM 53.4°F11.9°C 41.2°F5.1°C 63% 3.0 mph WSW4.8 kmh WSW 13.0 mph20.9 kmh 29.60 in1002.4 mb 0.00 in0.0 mm 0.00 in0.0 mm 0.02 in0.5 mm
03:55 PM 53.2°F11.8°C 41.0°F5.0°C 63% 3.0 mph WSW4.8 kmh WSW 11.0 mph17.7 kmh 29.60 in1002.4 mb 0.00 in0.0 mm 0.00 in0.0 mm 0.02 in0.5 mm
04:00 PM 53.1°F11.7°C 41.2°F5.1°C 64% 3.0 mph WSW4.8 kmh WSW 11.0 mph17.7 kmh 29.61 in1002.7 mb 0.00 in0.0 mm 0.00 in0.0 mm 0.02 in0.5 mm
04:05 PM 53.1°F11.7°C 41.2°F5.1°C 64% 2.0 mph WSW3.2 kmh WSW 10.0 mph16.1 kmh 29.61 in1002.7 mb 0.00 in0.0 mm 0.00 in0.0 mm 0.02 in0.5 mm
04:10 PM 53.4°F11.9°C 41.5°F5.3°C 64% 2.0 mph WSW3.2 kmh WSW 10.0 mph16.1 kmh 29.61 in1002.7 mb 0.00 in0.0 mm 0.00 in0.0 mm 0.02 in0.5 mm
04:15 PM 53.8°F12.1°C 41.4°F5.2°C 63% 2.0 mph WSW3.2 kmh WSW 7.0 mph11.3 kmh 29.60 in1002.4 mb 0.00 in0.0 mm 0.00 in0.0 mm 0.02 in0.5 mm
04:20 PM 53.8°F12.1°C 41.5°F5.3°C 63% 2.0 mph WSW3.2 kmh WSW 8.0 mph12.9 kmh 29.60 in1002.4 mb 0.00 in0.0 mm 0.00 in0.0 mm 0.02 in0.5 mm
04:25 PM 54.0°F12.2°C 41.5°F5.3°C 63% 2.0 mph WSW3.2 kmh WSW 8.0 mph12.9 kmh 29.61 in1002.7 mb 0.00 in0.0 mm 0.00 in0.0 mm 0.02 in0.5 mm
04:30 PM 54.0°F12.2°C 41.2°F5.1°C 62% 2.0 mph WSW3.2 kmh WSW 11.0 mph17.7 kmh 29.61 in1002.7 mb 0.00 in0.0 mm 0.00 in0.0 mm 0.02 in0.5 mm
04:35 PM 54.0°F12.2°C 41.5°F5.3°C 63% 2.0 mph WSW3.2 kmh WSW 11.0 mph17.7 kmh 29.61 in1002.7 mb 0.00 in0.0 mm 0.00 in0.0 mm 0.02 in0.5 mm
04:40 PM 53.8°F12.1°C 41.5°F5.3°C 63% 2.0 mph WSW3.2 kmh WSW 7.0 mph11.3 kmh 29.61 in1002.7 mb 0.00 in0.0 mm 0.00 in0.0 mm 0.02 in0.5 mm
04:45 PM 53.4°F11.9°C 42.1°F5.6°C 65% 2.0 mph WSW3.2 kmh WSW 8.0 mph12.9 kmh 29.61 in1002.7 mb 0.00 in0.0 mm 0.00 in0.0 mm 0.02 in0.5 mm
04:50 PM 53.2°F11.8°C 41.7°F5.4°C 65% 3.0 mph WSW4.8 kmh WSW 8.0 mph12.9 kmh 29.61 in1002.7 mb 0.00 in0.0 mm 0.00 in0.0 mm 0.02 in0.5 mm
04:55 PM 52.7°F11.5°C 42.1°F5.6°C 67% 4.0 mph WSW6.4 kmh WSW 8.0 mph12.9 kmh 29.61 in1002.7 mb 0.00 in0.0 mm 0.00 in0.0 mm 0.02 in0.5 mm
05:00 PM 52.3°F11.3°C 42.1°F5.6°C 68% 3.0 mph WSW4.8 kmh WSW 11.0 mph17.7 kmh 29.61 in1002.7 mb 0.00 in0.0 mm 0.00 in0.0 mm 0.02 in0.5 mm
05:05 PM 52.0°F11.1°C 41.7°F5.4°C 68% 4.0 mph WSW6.4 kmh WSW 11.0 mph17.7 kmh 29.61 in1002.7 mb 0.00 in0.0 mm 0.00 in0.0 mm 0.02 in0.5 mm
05:10 PM 51.6°F10.9°C 41.5°F5.3°C 68% 3.0 mph WSW4.8 kmh WSW 8.0 mph12.9 kmh 29.61 in1002.7 mb 0.00 in0.0 mm 0.00 in0.0 mm 0.02 in0.5 mm
05:15 PM 51.4°F10.8°C 41.5°F5.3°C 69% 2.0 mph WSW3.2 kmh WSW 7.0 mph11.3 kmh 29.62 in1003.0 mb 0.00 in0.0 mm 0.00 in0.0 mm 0.02 in0.5 mm
05:20 PM 51.1°F10.6°C 41.4°F5.2°C 69% 2.0 mph WSW3.2 kmh WSW 6.0 mph9.7 kmh 29.62 in1003.0 mb 0.00 in0.0 mm 0.00 in0.0 mm 0.02 in0.5 mm
05:25 PM 50.9°F10.5°C 41.5°F5.3°C 70% 2.0 mph WSW3.2 kmh WSW 6.0 mph9.7 kmh 29.62 in1003.0 mb 0.00 in0.0 mm 0.00 in0.0 mm 0.02 in0.5 mm
05:30 PM 50.7°F10.4°C 41.2°F5.1°C 70% 1.0 mph WSW1.6 kmh WSW 5.0 mph8.0 kmh 29.62 in1003.0 mb 0.00 in0.0 mm 0.00 in0.0 mm 0.02 in0.5 mm
05:35 PM 50.4°F10.2°C 41.4°F5.2°C 71% 1.0 mph WSW1.6 kmh WSW 4.0 mph6.4 kmh 29.62 in1003.0 mb 0.00 in0.0 mm 0.00 in0.0 mm 0.02 in0.5 mm
05:40 PM 50.4°F10.2°C 41.2°F5.1°C 71% 1.0 mph WSW1.6 kmh WSW 4.0 mph6.4 kmh 29.62 in1003.0 mb 0.00 in0.0 mm 0.00 in0.0 mm 0.02 in0.5 mm
05:45 PM 50.2°F10.1°C 41.5°F5.3°C 72% 1.0 mph WSW1.6 kmh WSW 3.0 mph4.8 kmh 29.62 in1003.0 mb 0.00 in0.0 mm 0.00 in0.0 mm 0.02 in0.5 mm
05:50 PM 50.2°F10.1°C 41.5°F5.3°C 72% 1.0 mph WSW1.6 kmh WSW 3.0 mph4.8 kmh 29.63 in1003.4 mb 0.00 in0.0 mm 0.00 in0.0 mm 0.02 in0.5 mm
05:55 PM 50.2°F10.1°C 41.2°F5.1°C 71% 1.0 mph WSW1.6 kmh WSW 3.0 mph4.8 kmh 29.63 in1003.4 mb 0.00 in0.0 mm 0.00 in0.0 mm 0.02 in0.5 mm
06:00 PM 50.4°F10.2°C 41.2°F5.1°C 71% 1.0 mph SW1.6 kmh SW 3.0 mph4.8 kmh 29.63 in1003.4 mb 0.00 in0.0 mm 0.00 in0.0 mm 0.02 in0.5 mm
06:05 PM 50.4°F10.2°C 41.2°F5.1°C 71% 1.0 mph SW1.6 kmh SW 4.0 mph6.4 kmh 29.64 in1003.7 mb 0.00 in0.0 mm 0.00 in0.0 mm 0.02 in0.5 mm
06:10 PM 50.2°F10.1°C 41.5°F5.3°C 72% 1.0 mph SW1.6 kmh SW 4.0 mph6.4 kmh 29.64 in1003.7 mb 0.00 in0.0 mm 0.00 in0.0 mm 0.02 in0.5 mm
06:15 PM 50.4°F10.2°C 41.5°F5.3°C 72% Calm Calm 2.0 mph3.2 kmh 29.64 in1003.7 mb 0.00 in0.0 mm 0.00 in0.0 mm 0.02 in0.5 mm
06:20 PM 50.4°F10.2°C 41.5°F5.3°C 72% Calm Calm 2.0 mph3.2 kmh 29.64 in1003.7 mb 0.00 in0.0 mm 0.00 in0.0 mm 0.02 in0.5 mm
06:25 PM 50.2°F10.1°C 41.5°F5.3°C 72% Calm Calm 2.0 mph3.2 kmh 29.64 in1003.7 mb 0.00 in0.0 mm 0.00 in0.0 mm 0.02 in0.5 mm
06:30 PM 50.2°F10.1°C 41.4°F5.2°C 72% Calm Calm 2.0 mph3.2 kmh 29.64 in1003.7 mb 0.00 in0.0 mm 0.00 in0.0 mm 0.02 in0.5 mm
06:35 PM 49.8°F9.9°C 41.2°F5.1°C 72% Calm Calm 2.0 mph3.2 kmh 29.65 in1004.1 mb 0.00 in0.0 mm 0.00 in0.0 mm 0.02 in0.5 mm
06:40 PM 49.8°F9.9°C 41.5°F5.3°C 73% Calm Calm 2.0 mph3.2 kmh 29.65 in1004.1 mb 0.00 in0.0 mm 0.00 in0.0 mm 0.02 in0.5 mm
06:45 PM 49.6°F9.8°C 41.4°F5.2°C 73% Calm Calm 1.0 mph1.6 kmh 29.65 in1004.1 mb 0.00 in0.0 mm 0.00 in0.0 mm 0.02 in0.5 mm
06:50 PM 49.6°F9.8°C 41.4°F5.2°C 73% Calm Calm 1.0 mph1.6 kmh 29.65 in1004.1 mb 0.00 in0.0 mm 0.00 in0.0 mm 0.02 in0.5 mm
06:55 PM 49.6°F9.8°C 41.4°F5.2°C 73% Calm Calm 1.0 mph1.6 kmh 29.65 in1004.1 mb 0.00 in0.0 mm 0.00 in0.0 mm 0.02 in0.5 mm
07:00 PM 49.6°F9.8°C 41.4°F5.2°C 73% Calm Calm 1.0 mph1.6 kmh 29.65 in1004.1 mb 0.00 in0.0 mm 0.00 in0.0 mm 0.02 in0.5 mm
07:05 PM 49.6°F9.8°C 41.4°F5.2°C 73% Calm Calm -- 29.65 in1004.1 mb 0.00 in0.0 mm 0.00 in0.0 mm 0.02 in0.5 mm
07:10 PM 49.5°F9.7°C 41.2°F5.1°C 73% Calm Calm 1.0 mph1.6 kmh 29.65 in1004.1 mb 0.00 in0.0 mm 0.00 in0.0 mm 0.02 in0.5 mm
07:15 PM 49.5°F9.7°C 41.2°F5.1°C 73% Calm Calm 2.0 mph3.2 kmh 29.65 in1004.1 mb 0.00 in0.0 mm 0.00 in0.0 mm 0.02 in0.5 mm
07:20 PM 49.5°F9.7°C 41.2°F5.1°C 73% Calm Calm 2.0 mph3.2 kmh 29.66 in1004.4 mb 0.00 in0.0 mm 0.00 in0.0 mm 0.02 in0.5 mm
07:25 PM 49.3°F9.6°C 41.0°F5.0°C 73% Calm Calm 2.0 mph3.2 kmh 29.65 in1004.1 mb 0.00 in0.0 mm 0.00 in0.0 mm 0.02 in0.5 mm
07:30 PM 49.3°F9.6°C 41.0°F5.0°C 73% Calm Calm 2.0 mph3.2 kmh 29.65 in1004.1 mb 0.00 in0.0 mm 0.00 in0.0 mm 0.02 in0.5 mm
07:35 PM 49.3°F9.6°C 41.0°F5.0°C 73% Calm Calm 3.0 mph4.8 kmh 29.66 in1004.4 mb 0.00 in0.0 mm 0.00 in0.0 mm 0.02 in0.5 mm
07:40 PM 49.3°F9.6°C 41.0°F5.0°C 73% Calm Calm 3.0 mph4.8 kmh 29.66 in1004.4 mb 0.00 in0.0 mm 0.00 in0.0 mm 0.02 in0.5 mm
07:45 PM 49.1°F9.5°C 40.8°F4.9°C 73% Calm Calm 2.0 mph3.2 kmh 29.66 in1004.4 mb 0.00 in0.0 mm 0.00 in0.0 mm 0.02 in0.5 mm
07:50 PM 48.9°F9.4°C 40.6°F4.8°C 73% Calm Calm 3.0 mph4.8 kmh 29.66 in1004.4 mb 0.00 in0.0 mm 0.00 in0.0 mm 0.02 in0.5 mm
07:55 PM 49.1°F9.5°C 40.8°F4.9°C 73% 1.0 mph SW1.6 kmh SW 3.0 mph4.8 kmh 29.66 in1004.4 mb 0.00 in0.0 mm 0.00 in0.0 mm 0.02 in0.5 mm
08:00 PM 48.9°F9.4°C 40.6°F4.8°C 73% 1.0 mph SW1.6 kmh SW 3.0 mph4.8 kmh 29.66 in1004.4 mb 0.00 in0.0 mm 0.00 in0.0 mm 0.02 in0.5 mm
08:05 PM 48.9°F9.4°C 40.6°F4.8°C 73% 1.0 mph SW1.6 kmh SW 3.0 mph4.8 kmh 29.66 in1004.4 mb 0.00 in0.0 mm 0.00 in0.0 mm 0.02 in0.5 mm
08:10 PM 48.9°F9.4°C 41.0°F5.0°C 74% Calm Calm 2.0 mph3.2 kmh 29.66 in1004.4 mb 0.00 in0.0 mm 0.00 in0.0 mm 0.02 in0.5 mm
08:15 PM 48.7°F9.3°C 40.8°F4.9°C 74% Calm Calm 3.0 mph4.8 kmh 29.66 in1004.4 mb 0.00 in0.0 mm 0.00 in0.0 mm 0.02 in0.5 mm
08:20 PM 48.6°F9.2°C 40.6°F4.8°C 74% Calm Calm 3.0 mph4.8 kmh 29.66 in1004.4 mb 0.00 in0.0 mm 0.00 in0.0 mm 0.02 in0.5 mm
08:25 PM 48.6°F9.2°C 40.6°F4.8°C 74% Calm Calm 2.0 mph3.2 kmh 29.66 in1004.4 mb 0.00 in0.0 mm 0.00 in0.0 mm 0.02 in0.5 mm
08:30 PM 48.4°F9.1°C 40.5°F4.7°C 74% 1.0 mph SW1.6 kmh SW 4.0 mph6.4 kmh 29.66 in1004.4 mb 0.00 in0.0 mm 0.00 in0.0 mm 0.02 in0.5 mm
08:35 PM 48.4°F9.1°C 40.8°F4.9°C 75% 1.0 mph WSW1.6 kmh WSW 4.0 mph6.4 kmh 29.66 in1004.4 mb 0.00 in0.0 mm 0.00 in0.0 mm 0.02 in0.5 mm
08:40 PM 48.4°F9.1°C 40.8°F4.9°C 75% 1.0 mph WSW1.6 kmh WSW 4.0 mph6.4 kmh 29.66 in1004.4 mb 0.00 in0.0 mm 0.00 in0.0 mm 0.02 in0.5 mm
08:45 PM 48.0°F8.9°C 40.5°F4.7°C 75% Calm Calm 2.0 mph3.2 kmh 29.66 in1004.4 mb 0.00 in0.0 mm 0.00 in0.0 mm 0.02 in0.5 mm
08:50 PM 48.0°F8.9°C 40.5°F4.7°C 75% Calm Calm 2.0 mph3.2 kmh 29.66 in1004.4 mb 0.00 in0.0 mm 0.00 in0.0 mm 0.02 in0.5 mm
08:55 PM 47.8°F8.8°C 40.3°F4.6°C 75% Calm Calm 2.0 mph3.2 kmh 29.66 in1004.4 mb 0.00 in0.0 mm 0.00 in0.0 mm 0.02 in0.5 mm
09:00 PM 47.7°F8.7°C 40.5°F4.7°C 76% Calm Calm 1.0 mph1.6 kmh 29.66 in1004.4 mb 0.00 in0.0 mm 0.00 in0.0 mm 0.02 in0.5 mm
09:05 PM 47.3°F8.5°C 40.1°F4.5°C 76% Calm Calm 1.0 mph1.6 kmh 29.66 in1004.4 mb 0.00 in0.0 mm 0.00 in0.0 mm 0.02 in0.5 mm
09:10 PM 46.9°F8.3°C 40.1°F4.5°C 77% Calm Calm 1.0 mph1.6 kmh 29.66 in1004.4 mb 0.00 in0.0 mm 0.00 in0.0 mm 0.02 in0.5 mm
09:15 PM 46.8°F8.2°C 39.9°F4.4°C 77% Calm Calm 1.0 mph1.6 kmh 29.66 in1004.4 mb 0.00 in0.0 mm 0.00 in0.0 mm 0.02 in0.5 mm
09:20 PM 46.8°F8.2°C 40.3°F4.6°C 78% Calm Calm 1.0 mph1.6 kmh 29.66 in1004.4 mb 0.00 in0.0 mm 0.00 in0.0 mm 0.02 in0.5 mm
09:25 PM 46.6°F8.1°C 39.9°F4.4°C 78% Calm Calm 1.0 mph1.6 kmh 29.67 in1004.7 mb 0.00 in0.0 mm 0.00 in0.0 mm 0.02 in0.5 mm
09:30 PM 46.2°F7.9°C 39.7°F4.3°C 78% Calm Calm 1.0 mph1.6 kmh 29.67 in1004.7 mb 0.00 in0.0 mm 0.00 in0.0 mm 0.02 in0.5 mm
09:35 PM 46.0°F7.8°C 39.6°F4.2°C 78% Calm Calm 1.0 mph1.6 kmh 29.67 in1004.7 mb 0.00 in0.0 mm 0.00 in0.0 mm 0.02 in0.5 mm
09:40 PM 45.9°F7.7°C 39.7°F4.3°C 79% Calm Calm -- 29.67 in1004.7 mb 0.00 in0.0 mm 0.00 in0.0 mm 0.02 in0.5 mm
09:45 PM 45.9°F7.7°C 39.7°F4.3°C 79% Calm Calm -- 29.67 in1004.7 mb 0.00 in0.0 mm 0.00 in0.0 mm 0.02 in0.5 mm
09:50 PM 45.7°F7.6°C 39.4°F4.1°C 79% Calm Calm 1.0 mph1.6 kmh 29.67 in1004.7 mb 0.00 in0.0 mm 0.00 in0.0 mm 0.02 in0.5 mm
09:55 PM 45.7°F7.6°C 39.6°F4.2°C 79% Calm Calm 1.0 mph1.6 kmh 29.67 in1004.7 mb 0.00 in0.0 mm 0.00 in0.0 mm 0.02 in0.5 mm
10:00 PM 45.7°F7.6°C 39.6°F4.2°C 79% Calm Calm 1.0 mph1.6 kmh 29.67 in1004.7 mb 0.00 in0.0 mm 0.00 in0.0 mm 0.02 in0.5 mm
10:05 PM 45.9°F7.7°C 39.7°F4.3°C 79% Calm Calm 1.0 mph1.6 kmh 29.67 in1004.7 mb 0.00 in0.0 mm 0.00 in0.0 mm 0.02 in0.5 mm
10:10 PM 45.7°F7.6°C 39.6°F4.2°C 79% Calm Calm 1.0 mph1.6 kmh 29.68 in1005.1 mb 0.00 in0.0 mm 0.00 in0.0 mm 0.02 in0.5 mm
10:15 PM 45.7°F7.6°C 39.4°F4.1°C 79% Calm Calm 1.0 mph1.6 kmh 29.68 in1005.1 mb 0.00 in0.0 mm 0.00 in0.0 mm 0.02 in0.5 mm
10:20 PM 45.3°F7.4°C 39.2°F4.0°C 79% Calm Calm 1.0 mph1.6 kmh 29.68 in1005.1 mb 0.00 in0.0 mm 0.00 in0.0 mm 0.02 in0.5 mm
10:25 PM 45.3°F7.4°C 39.2°F4.0°C 79% Calm Calm 1.0 mph1.6 kmh 29.68 in1005.1 mb 0.00 in0.0 mm 0.00 in0.0 mm 0.02 in0.5 mm
10:30 PM 45.1°F7.3°C 39.4°F4.1°C 80% Calm Calm -- 29.68 in1005.1 mb 0.00 in0.0 mm 0.00 in0.0 mm 0.02 in0.5 mm
10:35 PM 45.1°F7.3°C 39.4°F4.1°C 80% Calm Calm -- 29.68 in1005.1 mb 0.00 in0.0 mm 0.00 in0.0 mm 0.02 in0.5 mm
10:40 PM 45.3°F7.4°C 39.6°F4.2°C 80% Calm Calm -- 29.67 in1004.7 mb 0.00 in0.0 mm 0.00 in0.0 mm 0.02 in0.5 mm
10:45 PM 45.1°F7.3°C 39.4°F4.1°C 80% Calm Calm -- 29.67 in1004.7 mb 0.00 in0.0 mm 0.00 in0.0 mm 0.02 in0.5 mm
10:50 PM 45.0°F7.2°C 39.2°F4.0°C 80% Calm Calm -- 29.68 in1005.1 mb 0.00 in0.0 mm 0.00 in0.0 mm 0.02 in0.5 mm
10:55 PM 45.0°F7.2°C 39.0°F3.9°C 80% Calm Calm -- 29.68 in1005.1 mb 0.00 in0.0 mm 0.00 in0.0 mm 0.02 in0.5 mm
11:00 PM 45.1°F7.3°C 39.4°F4.1°C 80% Calm Calm -- 29.68 in1005.1 mb 0.00 in0.0 mm 0.00 in0.0 mm 0.02 in0.5 mm
11:05 PM 45.3°F7.4°C 39.6°F4.2°C 80% Calm Calm -- 29.68 in1005.1 mb 0.00 in0.0 mm 0.00 in0.0 mm 0.02 in0.5 mm
11:10 PM 45.5°F7.5°C 39.7°F4.3°C 80% Calm Calm -- 29.68 in1005.1 mb 0.00 in0.0 mm 0.00 in0.0 mm 0.02 in0.5 mm
11:15 PM 45.3°F7.4°C 39.2°F4.0°C 79% Calm Calm -- 29.68 in1005.1 mb 0.00 in0.0 mm 0.00 in0.0 mm 0.02 in0.5 mm
11:20 PM 45.1°F7.3°C 39.0°F3.9°C 79% Calm Calm -- 29.68 in1005.1 mb 0.00 in0.0 mm 0.00 in0.0 mm 0.02 in0.5 mm
11:25 PM 45.0°F7.2°C 39.0°F3.9°C 80% Calm Calm -- 29.68 in1005.1 mb 0.00 in0.0 mm 0.00 in0.0 mm 0.02 in0.5 mm
11:30 PM 45.0°F7.2°C 39.2°F4.0°C 80% Calm Calm -- 29.68 in1005.1 mb 0.00 in0.0 mm 0.00 in0.0 mm 0.02 in0.5 mm
11:35 PM 45.1°F7.3°C 39.4°F4.1°C 80% Calm Calm -- 29.68 in1005.1 mb 0.00 in0.0 mm 0.00 in0.0 mm 0.02 in0.5 mm
11:40 PM 45.1°F7.3°C 39.0°F3.9°C 79% Calm Calm -- 29.68 in1005.1 mb 0.00 in0.0 mm 0.00 in0.0 mm 0.02 in0.5 mm
11:45 PM 45.0°F7.2°C 38.8°F3.8°C 79% Calm Calm -- 29.68 in1005.1 mb 0.00 in0.0 mm 0.00 in0.0 mm 0.02 in0.5 mm
11:50 PM 44.8°F7.1°C 38.7°F3.7°C 79% Calm Calm -- 29.68 in1005.1 mb 0.00 in0.0 mm 0.00 in0.0 mm 0.02 in0.5 mm
11:55 PM 44.4°F6.9°C 38.7°F3.7°C 80% Calm Calm -- 29.68 in1005.1 mb 0.00 in0.0 mm 0.00 in0.0 mm 0.02 in0.5 mm